Churchville, Maryland
Current Conditions -  °F | °C
As of 8:45 PM on Wednesday 22 Oct 2014 (Local Time) from KMTN Reporting Station
Overcast Overcast  
Wind Chill: 55°   Ceiling: 3700
Heat Index: 55°   Visibility: 10mi
Dew Point: 48°   Wind: 12mph
Humidity: 77%   Direction: 310°NW
Pressure: 29.92"   Gusts: 23mph
Location:  39.56°N, 76.24°W
Report Text: KMTN 230045Z 31010G20KT 10SM OVC037 13/09 A2992
Loading
Personal Weather Stations






























Interactive Weather Map
Tropical Storm Tracking
New forecast layout! Learn more

10-Day Weather Forecast

Advertisements
Track Severe Weather on mobile